Time;durP1;ratioP1;P1;durP2;ratioP2;P2;SDS_P1;SDS_P2;PMS_P1;PMS_P2;Temp;Humidity;BMP_temperature;BMP_pressure;BME280_temperature;BME280_humidity;BME280_pressure;Samples;Min_cycle;Max_cycle;Signal;HPM_P1;HPM_P2
2021/03/22 00:01:32;;;;;;;7.68;5.15;;;6.40;99.90;;;;;;5043913;28;20021;-49
2021/03/22 00:03:58;;;;;;;7.85;5.28;;;6.50;99.90;;;;;;5044129;28;20083;-47
2021/03/22 00:06:24;;;;;;;7.60;5.55;;;6.70;99.90;;;;;;5043230;28;20503;-49
2021/03/22 00:08:57;;;;;;;9.18;5.28;;;6.60;99.90;;;;;;5043019;28;20032;-47
2021/03/22 00:11:23;;;;;;;8.60;5.50;;;6.60;99.90;;;;;;5043540;28;20021;-48
2021/03/22 00:13:50;;;;;;;8.85;5.78;;;6.60;99.90;;;;;;5042367;28;20060;-48
2021/03/22 00:16:16;;;;;;;7.90;5.32;;;6.50;99.90;;;;;;5042311;28;20017;-47
2021/03/22 00:18:42;;;;;;;8.90;5.47;;;6.40;99.90;;;;;;5043480;28;20503;-46
2021/03/22 00:21:12;;;;;;;7.05;4.63;;;6.40;99.90;;;;;;5044118;28;20036;-47
2021/03/22 00:23:37;;;;;;;8.55;6.13;;;6.40;99.90;;;;;;5044076;28;20046;-49
2021/03/22 00:26:05;;;;;;;9.20;6.13;;;6.20;99.90;;;;;;5054634;28;20037;-47
2021/03/22 00:28:38;;;;;;;7.63;5.15;;;6.20;99.90;;;;;;5043349;28;20447;-46
2021/03/22 00:31:09;;;;;;;10.32;5.82;;;6.30;99.90;;;;;;5043436;28;20477;-46
2021/03/22 00:33:35;;;;;;;6.93;4.90;;;6.20;99.90;;;;;;5042809;28;20451;-48
2021/03/22 00:36:01;;;;;;;7.03;4.65;;;6.30;99.90;;;;;;5042344;28;20025;-46
2021/03/22 00:38:27;;;;;;;8.25;5.40;;;6.20;99.90;;;;;;5043237;28;20028;-48
2021/03/22 00:40:55;;;;;;;9.23;5.47;;;6.30;99.90;;;;;;5043612;28;20028;-47
2021/03/22 00:43:22;;;;;;;7.60;5.00;;;6.30;99.90;;;;;;5042497;28;20040;-49
2021/03/22 00:45:48;;;;;;;10.13;5.45;;;6.20;99.90;;;;;;5047582;28;20105;-47
2021/03/22 00:48:14;;;;;;;8.20;5.28;;;6.10;99.90;;;;;;5043378;28;20040;-45
2021/03/22 00:50:42;;;;;;;6.95;4.78;;;6.20;99.90;;;;;;5044835;28;20029;-49
2021/03/22 00:53:10;;;;;;;9.15;5.38;;;6.30;99.90;;;;;;5044544;28;20025;-50
2021/03/22 00:55:36;;;;;;;8.10;5.22;;;6.30;99.90;;;;;;5046360;28;20112;-48
2021/03/22 00:58:04;;;;;;;10.60;6.32;;;6.40;99.90;;;;;;5047986;28;20390;-50
2021/03/22 01:00:35;;;;;;;9.52;5.78;;;6.40;99.90;;;;;;5047666;28;20024;-46
2021/03/22 01:03:03;;;;;;;9.95;5.82;;;6.30;99.90;;;;;;5046647;28;20047;-50
2021/03/22 01:05:28;;;;;;;9.50;6.10;;;6.30;99.90;;;;;;5047667;28;20028;-47
2021/03/22 01:07:54;;;;;;;9.77;5.72;;;6.40;99.90;;;;;;5046858;28;20041;-46
2021/03/22 01:10:31;;;;;;;8.63;5.68;;;6.30;99.90;;;;;;5047481;28;20321;-47
2021/03/22 01:12:58;;;;;;;9.98;5.47;;;6.20;99.90;;;;;;5047990;28;20028;-48
2021/03/22 01:15:24;;;;;;;8.93;5.47;;;6.10;99.90;;;;;;5047377;28;20100;-49
2021/03/22 01:17:50;;;;;;;12.10;6.80;;;6.10;99.90;;;;;;5047476;28;20032;-48
2021/03/22 01:20:26;;;;;;;9.93;6.00;;;5.90;99.90;;;;;;5047030;28;20484;-46
2021/03/22 01:22:51;;;;;;;11.50;6.38;;;6.00;99.90;;;;;;5047992;28;20482;-48
2021/03/22 01:25:17;;;;;;;9.10;5.50;;;6.00;99.90;;;;;;5047338;28;20056;-46
2021/03/22 01:27:43;;;;;;;12.35;6.68;;;6.00;99.90;;;;;;5048262;28;20335;-46
2021/03/22 01:30:16;;;;;;;9.68;6.00;;;6.00;99.90;;;;;;5048128;28;20056;-45
2021/03/22 01:32:42;;;;;;;9.85;5.85;;;6.00;99.90;;;;;;5047194;28;20046;-50
2021/03/22 01:35:09;;;;;;;9.80;5.95;;;6.00;99.90;;;;;;5048128;28;20343;-46
2021/03/22 01:37:35;;;;;;;8.95;5.63;;;6.10;99.90;;;;;;5046906;28;20641;-48
2021/03/22 01:40:07;;;;;;;9.50;5.32;;;6.00;99.90;;;;;;5047346;28;21001;-49
2021/03/22 01:42:51;;;;;;;8.68;5.50;;;6.00;99.90;;;;;;5046859;28;20021;-47
2021/03/22 01:45:16;;;;;;;11.07;6.93;;;6.00;99.90;;;;;;5047049;28;20028;-46
2021/03/22 01:47:42;;;;;;;10.20;6.10;;;5.90;99.90;;;;;;5046204;28;20499;-46
2021/03/22 01:50:34;;;;;;;9.48;5.80;;;5.80;99.90;;;;;;5057057;28;20323;-49
2021/03/22 01:53:01;;;;;;;8.80;6.00;;;5.80;99.90;;;;;;5066618;28;20043;-46
2021/03/22 01:55:28;;;;;;;10.38;6.53;;;5.80;99.90;;;;;;5066916;28;20388;-47
2021/03/22 01:57:54;;;;;;;11.30;7.30;;;5.70;99.90;;;;;;5049244;28;20498;-45
2021/03/22 02:00:28;;;;;;;9.35;6.30;;;5.50;99.90;;;;;;5046515;28;20021;-47
2021/03/22 02:03:05;;;;;;;9.67;6.57;;;5.50;99.90;;;;;;5046849;28;20119;-49
2021/03/22 02:05:34;;;;;;;9.43;5.85;;;5.60;99.90;;;;;;5046006;28;20503;-46
2021/03/22 02:08:09;;;;;;;11.25;6.30;;;5.60;99.90;;;;;;5045065;28;20025;-48
2021/03/22 02:10:38;;;;;;;11.73;6.68;;;5.60;99.90;;;;;;5046328;28;20506;-47
2021/03/22 02:13:05;;;;;;;12.63;7.25;;;5.60;99.90;;;;;;5046685;28;20025;-49
2021/03/22 02:15:31;;;;;;;14.10;8.98;;;5.50;99.90;;;;;;5046392;28;20172;-49
2021/03/22 02:18:09;;;;;;;14.50;9.00;;;5.50;99.90;;;;;;5046614;28;20503;-47
2021/03/22 02:20:50;;;;;;;14.90;9.45;;;5.40;99.90;;;;;;5046351;28;20031;-49
2021/03/22 02:23:46;;;;;;;16.10;10.30;;;5.40;99.90;;;;;;5046798;28;20024;-48
2021/03/22 02:26:30;;;;;;;16.65;9.88;;;5.40;99.90;;;;;;5046432;28;20446;-45
2021/03/22 02:29:17;;;;;;;18.27;11.70;;;5.30;99.90;;;;;;5046500;28;20063;-47
2021/03/22 02:32:00;;;;;;;20.48;12.40;;;5.20;99.90;;;;;;5046055;28;20032;-46
2021/03/22 02:34:45;;;;;;;22.67;13.07;;;5.30;99.90;;;;;;5046108;28;20028;-47
2021/03/22 02:37:56;;;;;;;20.30;12.32;;;5.30;99.90;;;;;;5046547;28;20041;-45
2021/03/22 02:40:37;;;;;;;19.35;11.07;;;5.20;99.90;;;;;;5046548;28;20426;-47
2021/03/22 02:43:05;;;;;;;20.80;12.23;;;5.30;99.90;;;;;;5046448;28;20031;-46
2021/03/22 02:45:37;;;;;;;19.08;11.93;;;5.30;99.90;;;;;;5045832;28;20033;-48
2021/03/22 02:48:04;;;;;;;19.38;11.98;;;5.30;99.90;;;;;;5045390;28;20053;-47
2021/03/22 02:50:35;;;;;;;19.10;11.57;;;5.30;99.90;;;;;;5059225;28;20100;-49
2021/03/22 02:53:07;;;;;;;20.90;11.48;;;5.30;99.90;;;;;;5066028;28;20052;-48
2021/03/22 02:56:00;;;;;;;19.42;11.05;;;5.30;99.90;;;;;;5065717;28;20025;-47
2021/03/22 02:58:45;;;;;;;14.48;8.68;;;5.20;99.90;;;;;;5045696;28;20029;-48
2021/03/22 03:01:24;;;;;;;17.08;10.55;;;5.40;99.90;;;;;;5045573;28;20033;-46
2021/03/22 03:03:52;;;;;;;18.70;10.52;;;5.30;99.90;;;;;;5045489;28;20471;-45
2021/03/22 03:06:19;;;;;;;20.65;10.63;;;5.10;99.90;;;;;;5045298;28;20107;-46
2021/03/22 03:08:45;;;;;;;19.20;10.68;;;5.30;99.90;;;;;;5045355;28;20507;-49
2021/03/22 03:11:12;;;;;;;16.63;10.07;;;5.20;99.90;;;;;;5059276;28;20502;-48
2021/03/22 03:13:38;;;;;;;16.58;8.93;;;5.30;99.90;;;;;;5065682;28;20506;-47
2021/03/22 03:16:05;;;;;;;16.77;10.05;;;5.30;99.90;;;;;;5057615;28;20052;-47
2021/03/22 03:18:31;;;;;;;20.38;10.40;;;5.30;99.90;;;;;;5044932;28;20111;-45
2021/03/22 03:20:58;;;;;;;15.10;8.63;;;5.30;99.90;;;;;;5045412;28;20056;-50
2021/03/22 03:23:26;;;;;;;17.88;10.05;;;5.30;99.90;;;;;;5050334;28;20028;-45
2021/03/22 03:25:52;;;;;;;19.50;11.20;;;5.20;99.90;;;;;;5061538;28;20509;-46
2021/03/22 03:28:19;;;;;;;16.40;10.43;;;5.20;99.90;;;;;;5045493;28;20025;-46
2021/03/22 03:30:44;;;;;;;19.45;9.18;;;5.40;99.90;;;;;;5044870;28;20039;-46
2021/03/22 03:33:14;;;;;;;15.50;8.02;;;5.40;99.90;;;;;;5045901;28;20041;-46
2021/03/22 03:35:43;;;;;;;17.95;9.40;;;5.40;99.90;;;;;;5044517;28;20018;-49
2021/03/22 03:38:10;;;;;;;21.05;11.73;;;5.50;99.90;;;;;;5045783;28;20036;-49
2021/03/22 03:40:45;;;;;;;20.15;10.13;;;5.30;99.90;;;;;;5045048;28;20317;-47
2021/03/22 03:43:12;;;;;;;21.88;11.48;;;5.40;99.90;;;;;;5045610;28;20025;-46
2021/03/22 03:45:40;;;;;;;17.30;9.93;;;5.40;99.90;;;;;;5045302;28;20021;-49
2021/03/22 03:48:07;;;;;;;30.58;14.00;;;5.30;99.90;;;;;;5044750;28;20025;-47
2021/03/22 03:50:33;;;;;;;24.17;13.05;;;5.20;99.90;;;;;;5044375;28;20089;-46
2021/03/22 03:53:00;;;;;;;24.58;13.13;;;4.90;99.90;;;;;;5045062;28;20025;-45
2021/03/22 03:55:28;;;;;;;20.48;11.15;;;5.10;99.90;;;;;;5044666;28;20040;-46
2021/03/22 03:57:56;;;;;;;27.30;13.95;;;5.30;99.90;;;;;;5044246;28;20025;-49
2021/03/22 04:00:24;;;;;;;26.63;13.70;;;5.10;99.90;;;;;;5058431;28;20193;-46
2021/03/22 04:02:50;;;;;;;20.55;11.35;;;5.10;99.90;;;;;;5064536;28;20072;-47
2021/03/22 04:05:16;;;;;;;21.30;11.35;;;5.30;99.90;;;;;;5062316;28;20032;-45
2021/03/22 04:07:42;;;;;;;18.55;12.25;;;5.10;99.90;;;;;;5044303;28;20028;-47
2021/03/22 04:10:08;;;;;;;19.60;10.55;;;5.00;99.90;;;;;;5045204;28;20407;-49
2021/03/22 04:12:35;;;;;;;17.58;10.30;;;5.10;99.90;;;;;;5050600;28;20704;-46
2021/03/22 04:15:02;;;;;;;15.98;9.73;;;5.10;99.90;;;;;;5064769;28;20055;-46
2021/03/22 04:17:27;;;;;;;21.17;12.63;;;5.10;99.90;;;;;;5062536;28;20032;-48
2021/03/22 04:19:53;;;;;;;21.58;10.80;;;5.00;99.90;;;;;;5064384;28;20017;-46
2021/03/22 04:22:19;;;;;;;15.90;9.43;;;5.00;99.90;;;;;;5062959;28;20036;-47
2021/03/22 04:24:44;;;;;;;15.85;9.63;;;5.10;99.90;;;;;;5064492;28;20453;-46
2021/03/22 04:27:10;;;;;;;13.88;8.88;;;5.20;99.90;;;;;;5061138;28;20047;-46
2021/03/22 04:29:35;;;;;;;16.10;9.02;;;5.20;99.90;;;;;;5063073;28;20054;-46
2021/03/22 04:32:02;;;;;;;13.82;8.80;;;5.20;99.90;;;;;;5064012;28;20028;-45
2021/03/22 04:34:28;;;;;;;16.02;8.43;;;5.30;99.90;;;;;;5063323;28;20042;-47
2021/03/22 04:36:54;;;;;;;17.67;8.48;;;5.10;99.90;;;;;;5050517;28;20039;-49
2021/03/22 04:39:19;;;;;;;18.35;9.20;;;5.20;99.90;;;;;;5043898;28;20484;-48
2021/03/22 04:41:45;;;;;;;16.00;8.45;;;5.20;99.90;;;;;;5053023;28;20040;-47
2021/03/22 04:44:11;;;;;;;14.82;8.18;;;5.20;99.90;;;;;;5062820;28;20032;-47
2021/03/22 04:46:36;;;;;;;11.45;7.32;;;5.10;99.90;;;;;;5061969;28;20375;-47
2021/03/22 04:49:02;;;;;;;13.55;7.72;;;5.10;99.90;;;;;;5065215;28;20660;-48
2021/03/22 04:51:28;;;;;;;14.48;7.82;;;5.20;99.90;;;;;;5060701;28;20506;-46
2021/03/22 04:53:55;;;;;;;13.30;7.72;;;5.20;99.90;;;;;;5064908;28;20017;-47
2021/03/22 04:56:22;;;;;;;11.77;7.18;;;5.10;99.90;;;;;;5056221;28;20044;-49
2021/03/22 04:58:48;;;;;;;14.38;7.65;;;5.10;99.90;;;;;;5044981;28;20021;-45
2021/03/22 05:01:13;;;;;;;16.15;8.65;;;5.20;99.90;;;;;;5046338;28;20111;-48
2021/03/22 05:03:39;;;;;;;17.35;9.57;;;5.10;99.90;;;;;;5063226;28;20108;-49
2021/03/22 05:06:05;;;;;;;17.05;8.77;;;5.10;99.90;;;;;;5061484;28;20498;-49
2021/03/22 05:08:31;;;;;;;12.55;7.75;;;5.10;99.90;;;;;;5044930;28;20594;-46
2021/03/22 05:10:59;;;;;;;17.13;9.70;;;5.10;99.90;;;;;;5044400;28;20060;-47
2021/03/22 05:13:28;;;;;;;18.55;9.63;;;5.00;99.90;;;;;;5043648;28;20025;-45
2021/03/22 05:15:54;;;;;;;16.63;8.63;;;5.00;99.90;;;;;;5043596;28;20028;-50
2021/03/22 05:18:22;;;;;;;19.02;10.63;;;4.90;99.90;;;;;;5043722;28;20021;-47
2021/03/22 05:20:54;;;;;;;17.30;9.20;;;4.70;99.90;;;;;;5044217;28;20032;-48
2021/03/22 05:23:24;;;;;;;15.18;8.20;;;4.80;99.90;;;;;;5043889;28;20572;-45
2021/03/22 05:25:51;;;;;;;11.55;7.00;;;5.10;99.90;;;;;;5046528;28;20032;-45
2021/03/22 05:28:18;;;;;;;16.95;8.45;;;5.00;99.90;;;;;;5063640;28;20048;-49
2021/03/22 05:30:44;;;;;;;13.55;8.15;;;4.80;99.90;;;;;;5062687;28;20029;-46
2021/03/22 05:33:12;;;;;;;13.75;7.22;;;4.90;99.90;;;;;;5063713;28;20016;-46
2021/03/22 05:35:39;;;;;;;11.30;6.93;;;4.90;99.90;;;;;;5063813;28;20039;-45
2021/03/22 05:38:06;;;;;;;10.75;7.05;;;4.90;99.90;;;;;;5044508;28;20029;-46
2021/03/22 05:40:40;;;;;;;14.77;7.20;;;4.90;99.90;;;;;;5044123;28;20108;-46
2021/03/22 05:43:36;;;;;;;14.77;7.30;;;4.80;99.90;;;;;;5062539;28;20017;-48
2021/03/22 05:46:39;;;;;;;11.68;6.22;;;4.90;99.90;;;;;;5054372;28;20061;-46
2021/03/22 05:49:17;;;;;;;14.48;7.32;;;5.00;99.90;;;;;;5048243;28;20410;-48
2021/03/22 05:52:02;;;;;;;23.33;9.30;;;5.10;99.90;;;;;;5046483;28;20151;-45
2021/03/22 05:54:39;;;;;;;18.90;8.68;;;4.70;99.90;;;;;;5046590;28;20037;-47
2021/03/22 05:57:12;;;;;;;18.80;8.23;;;4.60;99.90;;;;;;5047138;28;20083;-47
2021/03/22 05:59:51;;;;;;;13.52;7.97;;;4.50;99.90;;;;;;5061266;28;20028;-48
2021/03/22 06:02:34;;;;;;;13.43;7.05;;;4.40;99.90;;;;;;5066720;28;20074;-49
2021/03/22 06:05:29;;;;;;;10.80;6.10;;;4.30;99.90;;;;;;5066741;28;20025;-48
2021/03/22 06:07:59;;;;;;;11.80;5.60;;;4.60;99.90;;;;;;5050796;28;20040;-46
2021/03/22 06:10:30;;;;;;;11.77;5.95;;;4.50;99.90;;;;;;5044628;28;20469;-47
2021/03/22 06:13:00;;;;;;;12.80;5.75;;;4.50;99.90;;;;;;5056134;28;20020;-50
2021/03/22 06:16:13;;;;;;;10.48;5.50;;;4.50;99.90;;;;;;5054063;28;20020;-47
2021/03/22 06:18:52;;;;;;;9.07;5.63;;;4.50;99.90;;;;;;5043519;28;20647;-46
2021/03/22 06:21:18;;;;;;;13.50;5.38;;;4.40;99.90;;;;;;5043891;28;20061;-48
2021/03/22 06:23:46;;;;;;;14.00;5.10;;;4.40;99.90;;;;;;5045460;28;20083;-46
2021/03/22 06:26:31;;;;;;;9.30;4.18;;;4.60;99.90;;;;;;5045603;28;20035;-47
2021/03/22 06:29:04;;;;;;;10.77;4.70;;;4.80;99.90;;;;;;5045819;28;20051;-49
2021/03/22 06:31:32;;;;;;;10.38;4.20;;;4.70;99.90;;;;;;5045385;28;20068;-48
2021/03/22 06:34:10;;;;;;;8.85;4.55;;;4.50;99.90;;;;;;5046064;28;20092;-48
2021/03/22 06:36:36;;;;;;;8.13;3.60;;;4.60;99.90;;;;;;5045533;28;20031;-45
2021/03/22 06:39:05;;;;;;;7.88;3.58;;;4.70;99.90;;;;;;5045949;28;20079;-45
2021/03/22 06:41:42;;;;;;;8.48;4.03;;;4.70;99.90;;;;;;5046095;28;20265;-44
2021/03/22 06:44:27;;;;;;;10.98;3.42;;;4.50;99.90;;;;;;5046501;28;20036;-48
2021/03/22 06:47:26;;;;;;;11.45;4.30;;;4.60;99.90;;;;;;5048145;28;20534;-50
2021/03/22 06:50:14;;;;;;;9.48;3.90;;;4.60;99.90;;;;;;5064160;28;20143;-45
2021/03/22 06:52:43;;;;;;;11.95;4.70;;;4.70;99.90;;;;;;5048899;28;20060;-47
2021/03/22 06:55:35;;;;;;;15.30;5.05;;;4.50;99.90;;;;;;5053948;28;20041;-46
2021/03/22 06:58:01;;;;;;;10.50;4.63;;;4.30;99.90;;;;;;5055189;28;20037;-46
2021/03/22 07:00:29;;;;;;;11.15;4.10;;;4.40;99.90;;;;;;5047142;28;20025;-46
2021/03/22 07:02:58;;;;;;;10.63;3.45;;;4.70;99.90;;;;;;5047697;28;20040;-49
2021/03/22 07:05:24;;;;;;;9.20;3.92;;;4.70;99.90;;;;;;5047401;28;20123;-48
2021/03/22 07:08:11;;;;;;;11.60;4.10;;;4.60;99.90;;;;;;5047375;28;20162;-48
2021/03/22 07:10:39;;;;;;;9.23;3.60;;;4.70;99.90;;;;;;5047118;28;20048;-48
2021/03/22 07:13:05;;;;;;;10.73;4.03;;;4.40;99.90;;;;;;5047344;28;20112;-49
2021/03/22 07:15:33;;;;;;;9.20;3.22;;;4.70;99.90;;;;;;5046939;28;20105;-49
2021/03/22 07:18:23;;;;;;;8.13;4.20;;;4.60;99.90;;;;;;5046734;28;20044;-49
2021/03/22 07:20:55;;;;;;;18.48;5.78;;;4.60;99.90;;;;;;5051033;28;20525;-46
2021/03/22 07:23:38;;;;;;;15.23;5.90;;;4.40;99.90;;;;;;5052877;28;20108;-48
2021/03/22 07:26:04;;;;;;;22.17;7.77;;;4.50;99.90;;;;;;5046239;28;20056;-48
2021/03/22 07:28:48;;;;;;;18.75;7.78;;;4.50;99.90;;;;;;5050304;28;20028;-47
2021/03/22 07:31:41;;;;;;;19.02;6.53;;;4.40;99.90;;;;;;5066859;28;20024;-50
2021/03/22 07:34:54;;;;;;;17.15;6.30;;;4.90;99.90;;;;;;5064134;28;20066;-48
2021/03/22 07:37:36;;;;;;;20.25;7.97;;;5.00;99.90;;;;;;5054376;28;20090;-48
2021/03/22 07:40:32;;;;;;;25.98;8.70;;;4.80;99.90;;;;;;5046627;28;20060;-49
2021/03/22 07:43:42;;;;;;;22.27;7.88;;;4.80;99.90;;;;;;5045740;28;20091;-48
2021/03/22 07:46:39;;;;;;;20.55;7.93;;;4.80;99.90;;;;;;5044253;28;20033;-49
2021/03/22 07:49:17;;;;;;;23.52;8.27;;;4.70;99.90;;;;;;5058826;28;20028;-46
2021/03/22 07:52:10;;;;;;;20.60;8.00;;;4.70;99.90;;;;;;5049201;28;20045;-48
2021/03/22 07:54:54;;;;;;;30.30;9.45;;;4.80;99.90;;;;;;5044773;28;20032;-48
2021/03/22 07:57:39;;;;;;;;;;;4.70;99.90;;;;;;5044940;28;20456;-45
2021/03/22 08:00:17;;;;;;;31.75;9.55;;;4.70;99.90;;;;;;5044658;28;19916;-46
2021/03/22 08:02:46;;;;;;;25.27;8.23;;;4.70;99.90;;;;;;5048392;28;20029;-46
2021/03/22 08:05:30;;;;;;;23.35;8.15;;;4.50;99.90;;;;;;5056131;28;20031;-48
2021/03/22 08:08:22;;;;;;;24.92;8.90;;;4.50;99.90;;;;;;5044514;28;20032;-48
2021/03/22 08:11:17;;;;;;;24.40;7.70;;;4.50;99.90;;;;;;5048598;28;20120;-49
2021/03/22 08:14:11;;;;;;;15.82;6.70;;;4.60;99.90;;;;;;5062594;28;20025;-48
2021/03/22 08:17:10;;;;;;;14.48;5.72;;;4.70;99.90;;;;;;5048103;28;20017;-49
2021/03/22 08:19:47;;;;;;;12.45;5.05;;;4.90;99.90;;;;;;5043997;28;20025;-46
2021/03/22 08:22:40;;;;;;;9.95;3.97;;;5.20;99.90;;;;;;5046034;28;20609;-45
2021/03/22 08:25:24;;;;;;;27.17;7.32;;;5.50;99.90;;;;;;5041936;28;20628;-45
2021/03/22 08:27:57;;;;;;;12.27;5.78;;;5.10;99.90;;;;;;5044641;28;20534;-48
2021/03/22 08:30:44;;;;;;;18.67;6.13;;;5.20;99.90;;;;;;5043964;28;20033;-46
2021/03/22 08:33:37;;;;;;;18.17;6.40;;;5.30;99.90;;;;;;5063454;28;20056;-48
2021/03/22 08:36:38;;;;;;;14.02;5.43;;;5.40;99.90;;;;;;5064405;28;20031;-44
2021/03/22 08:39:13;;;;;;;19.42;6.18;;;5.40;99.90;;;;;;5050086;28;20037;-47
2021/03/22 08:42:00;;;;;;;14.35;5.22;;;5.30;99.90;;;;;;5060216;28;20040;-46
2021/03/22 08:44:57;;;;;;;15.27;5.38;;;5.40;99.90;;;;;;5064169;28;20485;-47
2021/03/22 08:47:45;;;;;;;17.02;6.60;;;5.30;99.90;;;;;;5083334;28;20016;-47
2021/03/22 08:50:27;;;;;;;15.10;5.80;;;5.40;99.90;;;;;;5047065;28;20426;-48
2021/03/22 08:53:22;;;;;;;8.93;4.80;;;5.80;99.90;;;;;;5058809;28;20028;-49
2021/03/22 08:55:59;;;;;;;;;;;6.20;99.90;;;;;;5047626;28;20037;-46
2021/03/22 08:58:36;;;;;;;13.50;4.47;;;6.10;99.90;;;;;;5043764;28;19944;-44
2021/03/22 09:01:07;;;;;;;8.43;4.15;;;6.40;99.90;;;;;;5043857;28;20432;-45
2021/03/22 09:03:36;;;;;;;7.18;3.28;;;6.60;99.90;;;;;;5043898;28;20082;-44
2021/03/22 09:06:29;;;;;;;10.93;3.70;;;6.70;99.90;;;;;;5043993;28;20507;-46
2021/03/22 09:09:21;;;;;;;9.77;3.38;;;6.80;99.90;;;;;;5046559;28;20059;-47
2021/03/22 09:11:49;;;;;;;10.23;4.57;;;6.70;99.90;;;;;;5044086;28;20032;-44
2021/03/22 09:14:39;;;;;;;9.73;3.78;;;6.50;99.90;;;;;;5055743;28;20036;-46
2021/03/22 09:17:23;;;;;;;12.85;4.65;;;6.60;99.90;;;;;;5051297;28;20298;-45
2021/03/22 09:20:10;;;;;;;12.80;5.03;;;6.50;99.90;;;;;;5055705;28;20020;-44
2021/03/22 09:22:44;;;;;;;10.80;4.10;;;6.30;99.90;;;;;;5047465;28;20086;-45
2021/03/22 09:25:13;;;;;;;10.00;3.75;;;6.60;99.90;;;;;;5048379;28;20036;-45
2021/03/22 09:27:40;;;;;;;10.48;4.68;;;6.70;99.90;;;;;;5047000;28;20036;-47
2021/03/22 09:30:06;;;;;;;10.90;4.57;;;6.70;99.90;;;;;;5061826;28;20025;-44
2021/03/22 09:32:35;;;;;;;12.57;4.72;;;6.90;99.90;;;;;;5046573;28;20445;-45
2021/03/22 09:35:16;;;;;;;19.73;5.88;;;6.90;99.90;;;;;;5047320;28;20021;-47
2021/03/22 09:38:03;;;;;;;9.30;4.65;;;6.60;99.90;;;;;;5047368;28;20029;-46
2021/03/22 09:40:29;;;;;;;16.55;6.70;;;6.90;99.90;;;;;;5047200;28;20009;-47
2021/03/22 09:45:35;;;;;;;14.57;5.32;;;6.70;99.90;;;;;;5046884;28;20032;-45
2021/03/22 09:48:16;;;;;;;10.55;4.30;;;6.90;99.90;;;;;;5047179;28;20063;-46
2021/03/22 09:50:50;;;;;;;13.38;4.32;;;7.10;99.90;;;;;;5046666;28;20056;-45
2021/03/22 09:53:26;;;;;;;9.98;3.78;;;7.20;99.90;;;;;;5047811;28;20017;-48
2021/03/22 09:55:51;;;;;;;10.82;4.22;;;7.50;99.90;;;;;;5054813;28;20021;-46
2021/03/22 09:58:25;;;;;;;11.35;4.75;;;7.40;99.90;;;;;;5066605;28;20071;-46
2021/03/22 10:01:00;;;;;;;10.40;4.03;;;7.30;99.90;;;;;;5066751;28;20028;-46
2021/03/22 10:03:36;;;;;;;9.10;4.03;;;7.50;99.90;;;;;;5066451;28;20034;-46
2021/03/22 10:06:12;;;;;;;14.00;4.95;;;7.40;99.90;;;;;;5066275;28;20066;-47
2021/03/22 10:08:41;;;;;;;12.40;3.83;;;7.40;99.90;;;;;;5057857;28;20025;-47
2021/03/22 10:11:31;;;;;;;9.70;3.97;;;7.80;99.90;;;;;;5060034;28;20028;-47
2021/03/22 10:14:00;;;;;;;12.32;4.70;;;7.70;99.90;;;;;;5050756;28;20044;-45
2021/03/22 10:16:28;;;;;;;11.25;4.72;;;7.60;99.90;;;;;;5045743;28;20036;-47
2021/03/22 10:19:12;;;;;;;16.52;6.35;;;7.80;99.90;;;;;;5045798;28;20103;-45
2021/03/22 10:21:50;;;;;;;14.80;5.72;;;7.60;99.90;;;;;;5045468;28;20029;-46
2021/03/22 10:24:41;;;;;;;9.40;4.07;;;7.60;99.90;;;;;;5044696;28;20098;-46
2021/03/22 10:27:25;;;;;;;14.20;4.32;;;7.90;99.90;;;;;;5045030;28;20060;-45
2021/03/22 10:30:09;;;;;;;7.45;3.50;;;8.10;99.90;;;;;;5046290;28;20056;-46
2021/03/22 10:32:37;;;;;;;7.47;3.10;;;8.30;99.90;;;;;;5045661;28;20028;-48
2021/03/22 10:35:16;;;;;;;9.02;3.88;;;8.40;99.90;;;;;;5045665;28;20434;-46
2021/03/22 10:37:53;;;;;;;8.05;2.67;;;8.20;99.90;;;;;;5045485;28;20021;-46
2021/03/22 10:40:24;;;;;;;5.47;2.70;;;8.50;99.90;;;;;;5046042;28;20541;-45
2021/03/22 10:42:53;;;;;;;7.97;3.70;;;8.60;99.90;;;;;;5044552;28;20126;-47
2021/03/22 10:45:36;;;;;;;9.65;3.28;;;8.50;99.90;;;;;;5054250;28;20520;-45
2021/03/22 10:48:19;;;;;;;6.72;2.90;;;8.70;99.90;;;;;;5056028;28;20021;-45
2021/03/22 10:50:45;;;;;;;7.10;3.22;;;8.70;99.90;;;;;;5050024;28;20036;-46
2021/03/22 10:53:17;;;;;;;8.32;2.65;;;8.70;99.90;;;;;;5046449;28;20025;-45
2021/03/22 10:55:48;;;;;;;11.02;3.40;;;8.80;99.90;;;;;;5065494;28;20104;-45
2021/03/22 10:58:25;;;;;;;10.18;3.25;;;8.70;99.90;;;;;;5060839;28;20021;-47
2021/03/22 11:00:59;;;;;;;8.85;3.05;;;8.90;99.90;;;;;;5050970;28;20112;-49
2021/03/22 11:03:27;;;;;;;6.88;3.17;;;9.00;99.90;;;;;;5064934;28;20069;-46
2021/03/22 11:05:55;;;;;;;11.30;3.63;;;9.10;99.90;;;;;;5059951;28;20037;-45
2021/03/22 11:08:32;;;;;;;10.10;3.42;;;9.00;99.90;;;;;;5045265;28;20029;-45
2021/03/22 11:11:09;;;;;;;11.20;4.10;;;9.00;99.90;;;;;;5045823;28;20442;-46
2021/03/22 11:13:38;;;;;;;16.92;4.90;;;9.00;99.90;;;;;;5046527;28;20403;-46
2021/03/22 11:16:06;;;;;;;13.38;4.78;;;8.90;99.90;;;;;;5046873;28;20024;-46
2021/03/22 11:18:33;;;;;;;14.75;5.53;;;9.10;99.90;;;;;;5046773;28;20021;-49
2021/03/22 11:21:00;;;;;;;8.90;3.33;;;9.30;99.90;;;;;;5048484;28;20073;-49
2021/03/22 11:23:44;;;;;;;12.05;4.05;;;9.50;99.90;;;;;;5045452;28;20075;-46
2021/03/22 11:26:12;;;;;;;9.75;4.15;;;9.60;99.90;;;;;;5046153;28;20024;-46
2021/03/22 11:28:38;;;;;;;8.55;3.15;;;9.30;99.90;;;;;;5046326;28;20383;-47
2021/03/22 11:31:13;;;;;;;14.48;4.22;;;9.60;99.90;;;;;;5055370;28;20027;-47
2021/03/22 11:33:57;;;;;;;14.70;5.07;;;9.40;99.90;;;;;;5050639;28;20032;-48
2021/03/22 11:36:40;;;;;;;12.38;4.70;;;9.20;99.90;;;;;;5046553;28;20036;-46
2021/03/22 11:39:20;;;;;;;10.43;3.97;;;9.30;99.90;;;;;;5046073;28;20033;-45
2021/03/22 11:41:54;;;;;;;12.73;4.80;;;9.70;99.90;;;;;;5046639;28;20063;-47
2021/03/22 11:44:31;;;;;;;10.55;3.45;;;9.50;99.90;;;;;;5046827;28;20035;-49
2021/03/22 11:47:35;;;;;;;12.27;3.88;;;9.60;99.90;;;;;;5046410;28;20108;-48
2021/03/22 11:50:23;;;;;;;15.05;4.75;;;9.80;99.90;;;;;;5045267;28;20044;-46
2021/03/22 11:53:05;;;;;;;12.70;4.90;;;10.00;99.90;;;;;;5046126;28;20031;-46
2021/03/22 11:55:41;;;;;;;12.25;4.60;;;10.00;99.90;;;;;;5057721;28;20404;-46
2021/03/22 11:58:26;;;;;;;17.50;4.60;;;10.00;99.90;;;;;;5045577;28;20017;-47
2021/03/22 12:00:53;;;;;;;11.15;4.30;;;10.00;99.70;;;;;;5065717;28;20036;-47
2021/03/22 12:03:28;;;;;;;10.18;3.63;;;10.00;99.90;;;;;;5066286;28;20071;-48
2021/03/22 12:06:20;;;;;;;17.10;4.68;;;10.30;99.40;;;;;;5062474;28;20092;-48
2021/03/22 12:08:45;;;;;;;11.75;4.32;;;10.30;99.20;;;;;;5045067;28;20033;-50
2021/03/22 12:11:19;;;;;;;10.25;3.88;;;10.30;98.90;;;;;;5045082;28;20035;-52
2021/03/22 12:13:48;;;;;;;16.70;5.03;;;10.50;98.80;;;;;;5045506;28;20037;-50
2021/03/22 12:16:34;;;;;;;15.38;4.50;;;10.50;98.90;;;;;;5047767;28;20510;-48
2021/03/22 12:19:33;;;;;;;11.05;3.50;;;10.50;98.30;;;;;;5058120;28;20013;-47
2021/03/22 12:21:59;;;;;;;10.65;2.80;;;10.90;99.20;;;;;;5043837;28;20403;-48
2021/03/22 12:24:25;;;;;;;10.00;3.42;;;11.20;98.00;;;;;;5055177;28;20033;-49
2021/03/22 12:26:52;;;;;;;9.38;3.33;;;11.10;99.10;;;;;;5043781;28;20064;-46
2021/03/22 12:29:17;;;;;;;9.73;3.47;;;11.30;98.60;;;;;;5055164;28;20028;-49
2021/03/22 12:31:47;;;;;;;9.13;3.53;;;11.30;97.90;;;;;;5053016;28;20051;-45
2021/03/22 12:34:17;;;;;;;13.13;3.78;;;11.10;97.10;;;;;;5060054;28;20028;-47
2021/03/22 12:36:43;;;;;;;9.82;2.80;;;11.30;96.90;;;;;;5057639;28;20112;-49
2021/03/22 12:39:18;;;;;;;9.10;2.20;;;11.60;97.40;;;;;;5049160;28;20021;-49
2021/03/22 12:41:44;;;;;;;13.82;4.18;;;11.80;97.00;;;;;;5043560;28;20540;-47
2021/03/22 12:44:10;;;;;;;13.48;3.53;;;11.30;96.50;;;;;;5059248;28;20032;-49
2021/03/22 12:46:36;;;;;;;12.77;4.38;;;11.20;96.50;;;;;;5063201;28;20410;-48
2021/03/22 12:49:01;;;;;;;12.82;3.97;;;11.30;96.50;;;;;;5059290;28;20043;-48
2021/03/22 12:51:27;;;;;;;8.85;2.78;;;11.50;96.40;;;;;;5053658;28;20033;-49
2021/03/22 12:53:53;;;;;;;10.68;3.58;;;11.90;96.40;;;;;;5066322;28;20024;-46
2021/03/22 12:56:26;;;;;;;11.25;4.22;;;11.60;95.70;;;;;;5066084;28;20055;-47
2021/03/22 12:58:55;;;;;;;6.03;3.08;;;11.50;96.50;;;;;;5065180;28;20021;-46
2021/03/22 13:01:20;;;;;;;14.98;4.25;;;11.60;96.20;;;;;;5055624;28;20045;-48
2021/03/22 13:03:47;;;;;;;13.82;4.53;;;11.30;96.30;;;;;;5061863;28;20037;-48
2021/03/22 13:06:13;;;;;;;12.48;4.75;;;11.30;96.10;;;;;;5047235;28;20036;-45
2021/03/22 13:08:38;;;;;;;17.83;5.40;;;11.10;96.70;;;;;;5046713;28;20423;-48
2021/03/22 13:11:06;;;;;;;16.83;6.57;;;11.10;96.70;;;;;;5047417;28;20085;-49
2021/03/22 13:13:32;;;;;;;19.50;6.43;;;11.10;96.50;;;;;;5055748;28;20013;-47
2021/03/22 13:15:58;;;;;;;15.25;5.63;;;11.30;96.30;;;;;;5067391;28;20039;-47
2021/03/22 13:18:26;;;;;;;15.55;5.97;;;11.30;96.10;;;;;;5065315;28;20530;-49
2021/03/22 13:20:58;;;;;;;16.13;5.50;;;11.70;96.20;;;;;;5056926;28;20037;-46
2021/03/22 13:23:25;;;;;;;30.48;9.85;;;11.60;95.70;;;;;;5058077;28;20051;-49
2021/03/22 13:25:52;;;;;;;23.38;8.70;;;11.10;96.20;;;;;;5047450;28;20029;-47